Time;durP1;ratioP1;P1;durP2;ratioP2;P2;SDS_P1;SDS_P2;PMS_P1;PMS_P2;Temp;Humidity;BMP_temperature;BMP_pressure;BME280_temperature;BME280_humidity;BME280_pressure;Samples;Min_cycle;Max_cycle;Signal;HPM_P1;HPM_P2
2022/12/29 00:02:32;;;;;;;4.50;1.50;;;;;;;10.28;75.49;99375.53;10414834;28;20041;-52
2022/12/29 00:07:33;;;;;;;3.05;1.77;;;;;;;10.32;75.49;99370.78;10412899;28;20136;-52
2022/12/29 00:17:55;;;;;;;2.78;2.03;;;;;;;10.33;75.79;99356.47;10413452;28;20449;-51
2022/12/29 00:44:28;;;;;;;2.13;1.77;;;;;;;10.13;81.57;99364.50;10404875;28;20111;-51
2022/12/29 00:49:30;;;;;;;4.00;1.75;;;;;;;10.18;80.63;99386.22;10407716;28;20038;-51
2022/12/29 00:54:34;;;;;;;3.30;1.50;;;;;;;10.13;81.29;99367.16;10411195;28;20262;-51
2022/12/29 00:59:39;;;;;;;2.65;2.05;;;;;;;10.15;83.08;99386.50;10404299;28;20055;-51
2022/12/29 01:04:41;;;;;;;2.40;1.38;;;;;;;10.10;84.21;99362.13;10409825;28;20041;-51
2022/12/29 01:15:02;;;;;;;2.65;1.30;;;;;;;10.12;86.23;99354.88;10398926;28;20058;-51
2022/12/29 01:20:04;;;;;;;2.55;1.45;;;;;;;10.15;87.05;99349.25;10420689;28;20061;-51
2022/12/29 01:25:06;;;;;;;2.60;1.35;;;;;;;10.16;87.99;99340.28;10413821;28;20051;-51
2022/12/29 01:30:08;;;;;;;2.63;1.23;;;;;;;10.19;88.00;99328.53;10408526;28;20560;-51
2022/12/29 01:35:10;;;;;;;1.05;0.95;;;;;;;10.23;88.23;99324.59;10397410;28;20060;-51
2022/12/29 01:40:12;;;;;;;1.63;0.80;;;;;;;10.27;88.37;99344.63;10407634;28;20051;-51
2022/12/29 01:45:16;;;;;;;2.28;0.95;;;;;;;10.03;88.96;99291.91;10409389;28;20044;-52
2022/12/29 01:50:26;;;;;;;3.57;1.00;;;;;;;10.26;89.00;99327.81;10408908;28;20052;-51
2022/12/29 01:55:31;;;;;;;1.27;0.82;;;;;;;10.25;89.21;99347.44;10400553;28;20134;-51
2022/12/29 02:00:32;;;;;;;1.83;1.20;;;;;;;10.24;89.44;99337.75;10404916;28;20838;-52
2022/12/29 02:05:40;;;;;;;4.10;1.20;;;;;;;10.31;89.40;99342.50;10409309;28;20414;-51
2022/12/29 02:10:43;;;;;;;2.22;1.13;;;;;;;10.33;89.34;99340.53;10408505;28;20801;-51
2022/12/29 02:16:18;;;;;;;1.65;0.75;;;;;;;10.36;89.29;99346.44;10407057;28;20689;-51
2022/12/29 02:21:41;;;;;;;3.50;1.42;;;;;;;10.41;89.18;99338.03;10404399;28;20154;-51
2022/12/29 02:26:54;;;;;;;1.95;1.15;;;;;;;10.45;88.79;99328.78;10407691;28;20138;-51
2022/12/29 02:32:05;;;;;;;1.95;1.08;;;;;;;10.47;88.76;99328.63;10414485;28;20053;-52
2022/12/29 02:37:24;;;;;;;2.70;1.20;;;;;;;10.51;88.56;99344.16;10401742;28;20045;-51
2022/12/29 02:42:48;;;;;;;1.10;0.65;;;;;;;10.49;88.30;99332.81;10404257;28;20044;-51
2022/12/29 02:48:12;;;;;;;0.93;0.50;;;;;;;10.44;88.54;99303.16;10408976;28;20046;-51
2022/12/29 02:53:17;;;;;;;1.77;0.50;;;;;;;10.35;88.98;99323.47;10399100;28;21306;-51
2022/12/29 02:58:22;;;;;;;1.88;0.93;;;;;;;10.38;88.76;99336.50;10412232;28;20060;-51
2022/12/29 03:03:23;;;;;;;1.67;0.80;;;;;;;10.48;88.30;99322.31;10396945;28;20044;-52
2022/12/29 03:08:42;;;;;;;1.20;0.45;;;;;;;10.55;87.55;99313.63;10415335;28;20052;-53
2022/12/29 03:19:19;;;;;;;0.65;0.40;;;;;;;10.63;86.95;99320.00;10407641;28;20120;-51
2022/12/29 03:24:26;;;;;;;1.58;0.50;;;;;;;10.64;86.71;99297.75;10405135;28;20049;-51
2022/12/29 03:29:32;;;;;;;1.73;0.40;;;;;;;10.57;86.75;99293.00;10404615;28;20133;-51
2022/12/29 03:34:35;;;;;;;1.38;0.68;;;;;;;10.57;86.77;99290.34;10402656;28;20045;-51
2022/12/29 03:39:37;;;;;;;2.80;1.08;;;;;;;10.55;86.72;99278.16;10398434;28;20063;-52
2022/12/29 03:44:42;;;;;;;1.20;0.60;;;;;;;10.56;86.30;99283.34;10389439;28;20132;-51
2022/12/29 03:49:45;;;;;;;2.10;1.00;;;;;;;10.68;85.63;99264.53;10406334;28;20650;-52
2022/12/29 03:54:47;;;;;;;2.45;0.73;;;;;;;10.74;85.24;99258.63;10413639;28;20424;-51
2022/12/29 03:59:49;;;;;;;2.00;1.35;;;;;;;10.77;84.79;99259.16;10399484;28;20162;-52
2022/12/29 04:04:51;;;;;;;2.72;0.70;;;;;;;10.83;84.11;99267.53;10405231;28;20132;-53
2022/12/29 04:09:52;;;;;;;2.10;0.63;;;;;;;10.88;83.38;99276.72;10408650;28;20053;-51
2022/12/29 04:14:54;;;;;;;1.27;0.70;;;;;;;10.92;82.40;99262.13;10406188;28;20046;-53
2022/12/29 04:20:59;;;;;;;4.03;1.35;;;;;;;10.93;81.70;99263.81;10403808;28;20139;-51
2022/12/29 04:25:17;;;;;;;1.88;0.90;;;;;;;10.98;80.70;99252.72;10404400;28;20485;-53
2022/12/29 04:30:18;;;;;;;2.50;1.00;;;;;;;11.03;80.49;99258.41;10416992;28;20205;-51
2022/12/29 04:35:20;;;;;;;1.13;0.60;;;;;;;11.07;79.65;99256.31;10400698;28;20063;-51
2022/12/29 04:40:23;;;;;;;1.88;0.70;;;;;;;11.15;78.12;99277.69;10419241;28;20154;-51
2022/12/29 04:45:24;;;;;;;1.05;0.60;;;;;;;11.21;78.08;99277.06;10408127;28;20438;-51
2022/12/29 04:50:25;;;;;;;4.10;1.10;;;;;;;11.23;76.75;99263.59;10413751;28;20052;-51
2022/12/29 04:55:27;;;;;;;2.20;0.93;;;;;;;11.30;75.90;99270.84;10412932;28;20045;-51
2022/12/29 05:00:28;;;;;;;1.33;0.77;;;;;;;11.36;75.64;99276.56;10408851;28;20132;-53
2022/12/29 05:05:30;;;;;;;2.65;1.20;;;;;;;11.38;75.30;99290.56;10406421;28;20060;-52
2022/12/29 05:10:31;;;;;;;2.10;1.00;;;;;;;11.40;75.61;99286.75;10404180;28;20053;-52
2022/12/29 05:15:33;;;;;;;2.50;1.00;;;;;;;11.38;76.47;99279.88;10405739;28;20047;-52
2022/12/29 05:20:34;;;;;;;1.38;0.90;;;;;;;11.36;77.24;99279.22;10407061;28;20048;-51
2022/12/29 05:25:36;;;;;;;1.10;0.63;;;;;;;11.33;77.57;99275.03;10410413;28;20052;-51
2022/12/29 05:30:37;;;;;;;1.77;0.80;;;;;;;11.35;77.66;99282.84;10408708;28;20047;-51
2022/12/29 05:35:39;;;;;;;1.13;0.75;;;;;;;11.29;78.50;99285.16;10400743;28;21518;-51
2022/12/29 05:40:40;;;;;;;1.75;0.55;;;;;;;11.28;78.77;99270.16;10409234;28;20119;-52
2022/12/29 05:45:42;;;;;;;1.75;0.82;;;;;;;11.30;78.94;99286.84;10409920;28;20077;-51
2022/12/29 05:50:47;;;;;;;1.20;0.60;;;;;;;11.34;77.67;99267.88;10414809;28;20105;-51
2022/12/29 05:55:49;;;;;;;2.25;0.90;;;;;;;11.37;77.04;99260.41;10405847;28;20049;-51
2022/12/29 06:00:51;;;;;;;2.08;0.82;;;;;;;11.44;75.93;99271.28;10419748;28;20254;-51
2022/12/29 06:05:52;;;;;;;1.17;0.80;;;;;;;11.49;75.57;99279.66;10413045;28;20049;-52
2022/12/29 06:10:55;;;;;;;1.33;0.70;;;;;;;11.49;74.74;99269.00;10406298;28;20738;-51
2022/12/29 06:15:56;;;;;;;0.98;0.70;;;;;;;11.59;73.82;99267.09;10405592;28;20061;-51
2022/12/29 06:21:02;;;;;;;2.03;0.85;;;;;;;11.65;73.26;99279.81;10408222;28;20594;-51
2022/12/29 06:26:04;;;;;;;2.05;0.88;;;;;;;11.59;73.59;99253.78;10404015;28;20048;-52
2022/12/29 06:31:09;;;;;;;1.42;0.60;;;;;;;11.71;73.28;99267.69;10402970;28;20057;-52
2022/12/29 06:36:11;;;;;;;1.90;0.85;;;;;;;11.72;73.12;99271.19;10406353;28;20045;-51
2022/12/29 06:41:12;;;;;;;2.75;0.90;;;;;;;11.74;73.15;99261.19;10402633;28;20056;-52
2022/12/29 06:46:14;;;;;;;1.88;0.73;;;;;;;11.72;73.45;99266.69;10399124;28;20076;-52
2022/12/29 06:51:15;;;;;;;2.85;0.70;;;;;;;11.74;73.07;99261.19;10419030;28;20049;-52
2022/12/29 06:56:18;;;;;;;2.67;0.90;;;;;;;11.73;73.45;99243.56;10404423;28;20110;-51
2022/12/29 07:01:20;;;;;;;1.60;1.10;;;;;;;11.62;74.88;99256.13;10406712;28;20102;-51
2022/12/29 07:06:22;;;;;;;1.95;1.10;;;;;;;11.59;75.97;99264.44;10412490;28;20148;-51
2022/12/29 07:11:24;;;;;;;2.45;1.00;;;;;;;11.42;75.85;99228.81;10409222;28;20975;-52
2022/12/29 07:16:26;;;;;;;3.05;1.05;;;;;;;11.37;74.80;99216.97;10402868;28;20064;-52
2022/12/29 07:21:27;;;;;;;3.33;0.98;;;;;;;11.55;75.50;99240.91;10411215;28;20079;-51
2022/12/29 07:26:28;;;;;;;1.85;1.20;;;;;;;11.55;74.82;99239.06;10399901;28;20511;-51
2022/12/29 07:31:36;;;;;;;1.88;1.10;;;;;;;11.61;74.08;99262.44;10415093;28;20886;-53
2022/12/29 07:36:38;;;;;;;1.90;0.90;;;;;;;11.62;73.42;99242.81;10397007;28;20050;-51
2022/12/29 07:41:39;;;;;;;3.28;1.45;;;;;;;11.65;73.18;99237.16;10408033;28;20049;-51
2022/12/29 07:46:41;;;;;;;4.53;1.58;;;;;;;11.67;72.71;99240.50;10416803;28;20126;-51
2022/12/29 07:51:57;;;;;;;4.03;1.20;;;;;;;11.72;72.52;99245.34;10414012;28;20468;-51
2022/12/29 07:57:00;;;;;;;3.08;1.30;;;;;;;11.75;72.03;99239.72;10408005;28;20053;-51
2022/12/29 08:02:01;;;;;;;2.28;1.23;;;;;;;11.78;72.13;99242.06;10418806;28;20064;-52
2022/12/29 08:07:03;;;;;;;6.00;1.75;;;;;;;11.77;72.12;99258.22;10411166;28;20195;-52
2022/12/29 08:12:04;;;;;;;2.80;1.13;;;;;;;11.82;72.59;99258.59;10419331;28;20052;-53
2022/12/29 08:17:06;;;;;;;3.45;1.95;;;;;;;11.72;72.93;99279.19;10412369;28;20069;-52
2022/12/29 08:22:07;;;;;;;5.43;1.83;;;;;;;11.80;72.91;99277.44;10413468;28;20049;-53
2022/12/29 08:27:09;;;;;;;2.40;1.50;;;;;;;11.78;73.30;99299.91;10409909;28;20041;-52
2022/12/29 08:32:20;;;;;;;5.20;1.45;;;;;;;11.76;73.55;99301.91;10413256;28;20486;-51
2022/12/29 08:37:22;;;;;;;2.80;1.60;;;;;;;11.72;74.25;99296.00;10416068;28;20139;-51
2022/12/29 08:42:32;;;;;;;3.22;1.40;;;;;;;11.70;74.35;99308.66;10410043;28;20842;-56
2022/12/29 08:47:33;;;;;;;2.30;1.58;;;;;;;11.74;74.08;99306.53;10407256;28;20070;-53
2022/12/29 08:52:35;;;;;;;2.80;2.00;;;;;;;11.80;74.85;99303.22;10417725;28;20642;-52
2022/12/29 08:57:36;;;;;;;3.58;1.90;;;;;;;11.80;74.56;99324.56;10407303;28;20060;-52
2022/12/29 09:02:38;;;;;;;2.97;1.52;;;;;;;11.58;77.52;99294.75;10405864;28;20072;-51
2022/12/29 09:07:40;;;;;;;4.15;1.75;;;;;;;11.60;79.00;99330.06;10416735;28;20145;-53
2022/12/29 09:12:41;;;;;;;3.15;1.90;;;;;;;11.55;81.86;99336.88;10404031;28;20060;-55
2022/12/29 09:17:45;;;;;;;3.17;1.83;;;;;;;11.35;84.70;99344.13;10412928;28;20757;-52
2022/12/29 09:22:48;;;;;;;2.55;1.80;;;;;;;11.35;83.97;99341.47;10419855;28;20675;-52
2022/12/29 09:27:52;;;;;;;2.53;2.00;;;;;;;11.40;84.50;99355.19;10418761;28;20048;-52
2022/12/29 09:32:53;;;;;;;3.38;2.30;;;;;;;11.29;83.92;99357.09;10405794;28;20068;-52
2022/12/29 09:37:56;;;;;;;5.22;2.25;;;;;;;11.40;84.42;99368.53;10402712;28;20061;-51
2022/12/29 09:43:12;;;;;;;2.67;2.00;;;;;;;11.31;86.98;99384.41;10409574;28;20051;-51
2022/12/29 09:48:26;;;;;;;2.92;2.50;;;;;;;11.21;89.17;99388.94;10411272;28;20041;-52
2022/12/29 09:53:37;;;;;;;3.40;2.42;;;;;;;10.77;93.98;99370.13;10403612;28;20046;-51
2022/12/29 09:58:44;;;;;;;2.42;1.98;;;;;;;10.86;95.02;99379.88;10406474;28;20487;-52
2022/12/29 10:03:51;;;;;;;4.10;2.67;;;;;;;10.87;95.63;99370.91;10395286;28;20044;-52
2022/12/29 10:09:32;;;;;;;3.40;2.25;;;;;;;10.94;94.51;99372.00;10398733;28;20044;-52
2022/12/29 10:14:51;;;;;;;1.98;1.30;;;;;;;10.96;92.85;99375.34;10392923;28;20052;-52
2022/12/29 10:20:05;;;;;;;3.50;1.30;;;;;;;10.96;91.81;99385.19;10390240;28;20609;-53
2022/12/29 10:25:14;;;;;;;1.77;0.93;;;;;;;10.79;91.10;99376.97;10405325;28;20048;-52
2022/12/29 10:30:17;;;;;;;1.30;0.80;;;;;;;10.84;89.77;99373.88;10399588;28;20120;-53
2022/12/29 10:35:20;;;;;;;0.88;0.50;;;;;;;10.82;89.33;99380.31;10400429;28;20052;-52
2022/12/29 10:40:35;;;;;;;3.30;0.77;;;;;;;10.69;86.10;99368.19;10401429;28;20055;-52
2022/12/29 10:45:38;;;;;;;0.95;0.50;;;;;;;10.87;85.06;99375.38;10412477;28;20048;-57
2022/12/29 10:50:42;;;;;;;2.45;0.55;;;;;;;11.09;82.26;99374.16;10409162;28;20600;-53
2022/12/29 10:55:45;;;;;;;5.20;3.97;;;;;;;11.09;82.49;99368.84;10404340;28;20791;-51
2022/12/29 11:00:53;;;;;;;2.70;1.50;;;;;;;11.65;80.50;99373.13;10409100;28;20275;-52
2022/12/29 11:06:00;;;;;;;2.45;0.90;;;;;;;11.74;79.83;99368.69;10408691;28;20132;-52
2022/12/29 11:11:08;;;;;;;2.50;0.77;;;;;;;11.70;79.56;99371.81;10406316;28;20041;-52
2022/12/29 11:16:11;;;;;;;1.67;0.40;;;;;;;14.73;67.49;99379.25;10410833;28;20626;-53
2022/12/29 11:21:27;;;;;;;3.95;0.75;;;;;;;15.36;61.85;99369.44;10409592;28;20049;-52
2022/12/29 11:26:31;;;;;;;2.15;1.17;;;;;;;14.63;63.95;99378.59;10413820;28;20041;-53
2022/12/29 11:31:41;;;;;;;1.00;0.50;;;;;;;18.94;50.36;99391.63;10412358;28;20126;-51
2022/12/29 11:36:43;;;;;;;1.75;0.30;;;;;;;20.61;44.89;99383.88;10409799;28;20507;-52
2022/12/29 11:41:52;;;;;;;2.67;0.50;;;;;;;17.81;51.47;99392.34;10415377;28;20219;-56
2022/12/29 11:46:54;;;;;;;1.90;0.30;;;;;;;22.15;42.14;99388.66;10413097;28;20080;-55
2022/12/29 11:51:56;;;;;;;1.53;0.63;;;;;;;18.75;48.19;99374.25;10411986;28;20057;-52
2022/12/29 11:57:18;;;;;;;1.30;0.70;;;;;;;17.85;52.29;99375.59;10413140;28;20692;-52
2022/12/29 12:02:41;;;;;;;2.63;0.88;;;;;;;17.40;52.02;99371.38;10415695;28;20052;-52
2022/12/29 12:07:49;;;;;;;3.65;1.92;;;;;;;17.55;51.60;99366.81;10415342;28;20049;-53
2022/12/29 12:13:01;;;;;;;2.65;1.15;;;;;;;18.76;48.61;99354.34;10412281;28;20478;-52
2022/12/29 12:18:11;;;;;;;3.50;0.40;;;;;;;18.87;46.47;99340.34;10410965;28;20071;-54
2022/12/29 12:23:27;;;;;;;0.80;0.50;;;;;;;20.07;43.36;99378.50;10410817;28;20053;-53
2022/12/29 12:28:29;;;;;;;2.80;1.42;;;;;;;17.52;49.16;99377.09;10409050;28;20592;-58
2022/12/29 12:33:42;;;;;;;0.93;0.38;;;;;;;15.60;53.65;99383.72;10409548;28;20048;-53
2022/12/29 12:39:10;;;;;;;3.45;1.85;;;;;;;14.74;58.27;99372.91;10407765;28;20045;-53
2022/12/29 12:44:23;;;;;;;2.90;0.70;;;;;;;14.39;59.49;99385.63;10404287;28;20049;-52
2022/12/29 12:49:55;;;;;;;2.22;0.63;;;;;;;15.09;58.60;99383.31;10411328;28;20044;-52
2022/12/29 12:55:01;;;;;;;2.60;1.50;;;;;;;16.74;53.50;99367.66;10413021;28;20053;-52
2022/12/29 13:00:17;;;;;;;7.60;5.65;;;;;;;15.41;57.62;99385.00;10409880;28;20048;-52
2022/12/29 13:05:25;;;;;;;0.73;0.20;;;;;;;13.97;63.40;99387.50;10401311;28;20496;-53
2022/12/29 13:10:51;;;;;;;1.23;0.55;;;;;;;13.36;67.42;99365.53;10410327;28;20087;-54
2022/12/29 13:16:12;;;;;;;1.95;0.47;;;;;;;13.02;68.80;99370.91;10407517;28;20141;-52
2022/12/29 13:22:01;;;;;;;1.10;0.50;;;;;;;13.62;67.24;99369.91;10399735;28;20206;-51
2022/12/29 13:27:26;;;;;;;2.33;0.60;;;;;;;19.28;48.76;99360.25;10409986;28;20040;-56
2022/12/29 13:32:49;;;;;;;2.97;0.98;;;;;;;19.37;47.09;99373.34;10408613;28;20045;-52
2022/12/29 13:37:56;;;;;;;2.10;0.45;;;;;;;17.64;50.09;99357.59;10405779;28;20045;-52
2022/12/29 13:43:00;;;;;;;4.45;0.93;;;;;;;16.36;52.82;99370.41;10401127;28;20060;-52
2022/12/29 13:48:01;;;;;;;;;;;;;;;15.62;54.93;99378.19;10416629;28;20123;-52
2022/12/29 13:53:25;;;;;;;1.65;0.68;;;;;;;14.72;57.54;99388.28;10416494;28;20308;-52
2022/12/29 13:58:29;;;;;;;4.73;0.70;;;;;;;13.74;59.91;99384.63;10404122;28;20061;-52
2022/12/29 14:03:43;;;;;;;2.17;1.10;;;;;;;13.41;61.49;99379.22;10412964;28;20064;-55
2022/12/29 14:08:46;;;;;;;3.83;0.85;;;;;;;13.31;61.74;99375.81;10406915;28;21712;-51
2022/12/29 14:13:48;;;;;;;4.00;1.50;;;;;;;13.16;62.57;99374.78;10409547;28;20146;-52
2022/12/29 14:18:50;;;;;;;3.67;1.10;;;;;;;12.96;63.83;99384.91;10415374;28;20132;-52
2022/12/29 14:23:53;;;;;;;2.75;0.80;;;;;;;12.87;64.66;99402.72;10409042;28;20203;-52
2022/12/29 14:28:55;;;;;;;4.45;0.90;;;;;;;12.72;65.57;99400.63;10399499;28;20099;-51
2022/12/29 14:34:10;;;;;;;1.77;0.70;;;;;;;12.81;65.55;99404.19;10390477;28;20056;-51
2022/12/29 14:39:32;;;;;;;4.65;1.17;;;;;;;12.69;65.68;99419.63;10410069;28;20680;-51
2022/12/29 14:44:45;;;;;;;2.45;1.00;;;;;;;12.41;66.09;99426.13;10401416;28;20048;-51
2022/12/29 14:49:46;;;;;;;2.92;1.10;;;;;;;12.27;66.44;99435.53;10405849;28;20049;-51
2022/12/29 14:54:49;;;;;;;3.25;1.25;;;;;;;12.16;66.26;99442.78;10402467;28;20057;-52
2022/12/29 15:00:00;;;;;;;4.68;1.35;;;;;;;12.22;65.39;99438.66;10410263;28;20059;-50
2022/12/29 15:05:03;;;;;;;2.58;0.95;;;;;;;12.31;64.67;99424.38;10406132;28;20044;-50
2022/12/29 15:10:13;;;;;;;5.00;1.17;;;;;;;12.05;64.72;99412.81;10413137;28;20198;-50
2022/12/29 15:15:19;;;;;;;2.50;1.10;;;;;;;11.91;65.18;99428.34;10405386;28;20041;-51
2022/12/29 15:20:27;;;;;;;3.38;1.00;;;;;;;11.80;66.37;99432.06;10409407;28;20048;-52
2022/12/29 15:25:30;;;;;;;3.83;0.95;;;;;;;11.64;65.74;99438.06;10411373;28;20191;-51
2022/12/29 15:30:32;;;;;;;2.92;1.30;;;;;;;11.58;66.05;99437.84;10397890;28;20064;-56
2022/12/29 15:35:37;;;;;;;3.55;0.98;;;;;;;11.51;65.99;99424.25;10387314;28;20056;-50
2022/12/29 15:40:38;;;;;;;3.13;1.38;;;;;;;11.37;66.20;99419.44;10396054;28;20055;-51
2022/12/29 15:45:40;;;;;;;4.28;1.73;;;;;;;11.30;65.74;99446.69;10406680;28;20051;-51
2022/12/29 15:50:43;;;;;;;3.42;1.48;;;;;;;11.24;65.66;99439.25;10401926;28;20045;-51
2022/12/29 15:55:47;;;;;;;4.55;1.25;;;;;;;11.23;65.37;99460.72;10393134;28;20128;-51
2022/12/29 16:00:57;;;;;;;3.15;1.20;;;;;;;11.18;64.93;99469.16;10419469;28;20069;-52
2022/12/29 16:06:24;;;;;;;4.97;1.50;;;;;;;11.16;64.83;99487.13;10406116;28;20135;-52
2022/12/29 16:11:30;;;;;;;3.78;1.50;;;;;;;11.16;65.08;99489.78;10404892;28;20052;-51
2022/12/29 16:16:37;;;;;;;4.25;1.10;;;;;;;11.14;65.50;99489.09;10408202;28;20123;-53
2022/12/29 16:21:43;;;;;;;4.03;1.27;;;;;;;11.19;66.29;99502.00;10404368;28;20046;-50
2022/12/29 16:26:52;;;;;;;2.90;0.60;;;;;;;11.07;66.53;99496.81;10401016;28;20053;-49
2022/12/29 16:31:59;;;;;;;7.13;2.92;;;;;;;11.02;67.41;99500.91;10407585;28;20069;-51
2022/12/29 16:37:32;;;;;;;6.38;1.88;;;;;;;11.00;67.50;99518.84;10407536;28;20120;-50
2022/12/29 16:42:43;;;;;;;4.95;1.20;;;;;;;10.97;67.65;99535.94;10404365;28;20051;-50
2022/12/29 16:48:10;;;;;;;3.88;1.38;;;;;;;10.91;67.32;99525.88;10392356;28;20052;-51
2022/12/29 16:53:39;;;;;;;3.92;1.90;;;;;;;10.89;67.82;99533.19;10398447;28;20123;-50
2022/12/29 16:58:41;;;;;;;3.05;1.55;;;;;;;10.75;68.60;99537.13;10395113;28;20073;-50
2022/12/29 17:03:56;;;;;;;2.90;0.80;;;;;;;10.73;69.63;99536.41;10393264;28;20138;-51
2022/12/29 17:08:58;;;;;;;3.70;1.23;;;;;;;10.68;70.49;99544.84;10393914;28;21334;-50
2022/12/29 17:13:59;;;;;;;2.70;1.08;;;;;;;10.41;70.59;99518.94;10393390;28;20274;-51
2022/12/29 17:19:01;;;;;;;2.88;0.98;;;;;;;10.48;71.73;99552.00;10394935;28;20091;-50
2022/12/29 17:24:05;;;;;;;3.70;1.15;;;;;;;10.50;72.34;99558.00;10397727;28;20132;-50
2022/12/29 17:29:15;;;;;;;3.67;1.15;;;;;;;10.40;72.64;99558.03;10398369;28;20126;-50
2022/12/29 17:34:16;;;;;;;5.05;2.45;;;;;;;10.34;73.13;99558.53;10396393;28;20051;-49
2022/12/29 17:39:18;;;;;;;4.32;1.70;;;;;;;10.30;73.10;99558.94;10401731;28;20052;-49
2022/12/29 17:44:22;;;;;;;3.80;1.88;;;;;;;10.22;73.10;99552.50;10402320;28;20159;-49
2022/12/29 17:49:23;;;;;;;3.80;1.70;;;;;;;10.25;71.92;99556.69;10393945;28;20065;-50
2022/12/29 17:54:25;;;;;;;5.38;2.42;;;;;;;10.22;71.46;99557.84;10401496;28;20060;-49
2022/12/29 17:59:26;;;;;;;5.85;2.20;;;;;;;10.29;71.62;99551.97;10402835;28;20060;-49
2022/12/29 18:04:28;;;;;;;6.05;1.50;;;;;;;10.26;71.09;99548.56;10401916;28;20045;-49
2022/12/29 18:09:30;;;;;;;5.20;2.38;;;;;;;10.25;71.06;99540.72;10404567;28;20061;-49
2022/12/29 18:14:31;;;;;;;4.50;1.63;;;;;;;10.27;71.22;99555.59;10407094;28;20139;-49
2022/12/29 18:19:33;;;;;;;5.53;1.38;;;;;;;10.19;71.35;99555.44;10400114;28;20153;-48
2022/12/29 18:24:36;;;;;;;4.13;1.80;;;;;;;10.25;70.89;99567.34;10399348;28;20450;-49
2022/12/29 18:29:39;;;;;;;5.32;2.05;;;;;;;10.23;70.92;99570.13;10395366;28;20052;-49
2022/12/29 18:34:41;;;;;;;6.07;1.85;;;;;;;10.20;71.00;99575.72;10401391;28;20129;-48
2022/12/29 18:39:42;;;;;;;4.28;2.65;;;;;;;10.09;71.37;99578.53;10393268;28;20041;-49
2022/12/29 18:44:44;;;;;;;5.95;2.95;;;;;;;10.03;71.52;99589.72;10392745;28;20551;-51
2022/12/29 18:49:45;;;;;;;4.53;2.55;;;;;;;10.01;71.58;99591.66;10395787;28;20145;-50
2022/12/29 18:54:46;;;;;;;6.43;1.73;;;;;;;9.96;71.38;99592.06;10397954;28;20053;-49
2022/12/29 18:59:48;;;;;;;8.50;3.40;;;;;;;9.91;71.46;99591.63;10398206;28;20049;-50
2022/12/29 19:04:49;;;;;;;4.80;1.50;;;;;;;9.93;71.63;99594.16;10396775;28;20103;-49
2022/12/29 19:09:54;;;;;;;5.97;1.85;;;;;;;9.84;71.44;99593.16;10393387;28;20191;-49
2022/12/29 19:14:56;;;;;;;5.93;2.38;;;;;;;9.85;71.08;99613.44;10392901;28;20060;-48
2022/12/29 19:19:59;;;;;;;6.38;1.70;;;;;;;9.81;70.98;99610.19;10400614;28;20115;-49
2022/12/29 19:25:01;;;;;;;7.18;2.25;;;;;;;9.83;70.90;99624.22;10403066;28;20056;-49
2022/12/29 19:30:03;;;;;;;6.25;2.13;;;;;;;9.83;70.84;99621.56;10400925;28;20509;-48
2022/12/29 19:35:05;;;;;;;8.43;3.22;;;;;;;9.89;70.74;99628.13;10398502;28;20203;-50
2022/12/29 19:40:08;;;;;;;6.85;2.33;;;;;;;9.89;70.35;99621.00;10406947;28;20728;-50
2022/12/29 19:45:11;;;;;;;6.75;1.83;;;;;;;9.90;70.49;99630.66;10414769;28;20060;-49
2022/12/29 19:50:15;;;;;;;7.07;1.88;;;;;;;9.91;70.21;99642.97;10410051;28;20052;-49
2022/12/29 19:55:16;;;;;;;4.97;1.50;;;;;;;9.93;70.54;99637.53;10415107;28;20470;-49
2022/12/29 20:00:18;;;;;;;4.53;2.10;;;;;;;9.89;70.77;99647.59;10402982;28;20122;-49
2022/12/29 20:05:20;;;;;;;6.40;2.40;;;;;;;9.90;70.66;99643.94;10405287;28;20061;-49
2022/12/29 20:10:21;;;;;;;6.35;2.33;;;;;;;9.85;70.58;99634.72;10403583;28;20457;-48
2022/12/29 20:15:24;;;;;;;6.35;2.05;;;;;;;9.84;70.79;99639.16;10405452;28;20041;-48
2022/12/29 20:20:25;;;;;;;6.78;2.42;;;;;;;9.86;70.79;99642.56;10409173;28;20561;-48
2022/12/29 20:25:28;;;;;;;7.57;1.98;;;;;;;9.90;70.63;99635.13;10406329;28;20074;-48
2022/12/29 20:31:05;;;;;;;5.45;2.53;;;;;;;9.91;70.75;99648.28;10410962;28;20398;-48
2022/12/29 20:36:10;;;;;;;6.50;2.05;;;;;;;9.82;70.93;99657.06;10409479;28;20130;-48
2022/12/29 20:41:12;;;;;;;7.10;2.65;;;;;;;9.91;71.08;99666.91;10403181;28;20548;-49
2022/12/29 20:46:14;;;;;;;7.70;2.15;;;;;;;9.86;71.06;99673.59;10406012;28;20045;-48
2022/12/29 20:51:22;;;;;;;7.00;1.90;;;;;;;9.87;71.33;99669.97;10403469;28;20044;-53
2022/12/29 20:56:25;;;;;;;6.97;2.00;;;;;;;9.84;71.31;99676.38;10409188;28;20122;-50
2022/12/29 21:01:27;;;;;;;6.82;3.40;;;;;;;9.79;72.16;99686.59;10408369;28;20057;-50
2022/12/29 21:06:29;;;;;;;5.60;1.90;;;;;;;9.84;73.03;99689.69;10416371;28;20639;-50
2022/12/29 21:11:30;;;;;;;6.15;2.03;;;;;;;9.78;73.55;99698.19;10407998;28;20456;-49
2022/12/29 21:16:32;;;;;;;5.38;2.33;;;;;;;9.77;74.17;99699.16;10408720;28;20057;-49
2022/12/29 21:21:33;;;;;;;5.75;2.13;;;;;;;9.74;75.04;99720.66;10410363;28;20053;-49
2022/12/29 21:26:35;;;;;;;8.32;2.08;;;;;;;9.70;75.82;99692.69;10410466;28;20488;-49
2022/12/29 21:31:37;;;;;;;7.38;1.88;;;;;;;9.66;76.63;99704.56;10417080;28;20616;-49
2022/12/29 21:36:39;;;;;;;9.38;3.13;;;;;;;9.60;75.59;99707.75;10408504;28;20076;-49
2022/12/29 21:41:41;;;;;;;6.85;1.80;;;;;;;9.62;74.91;99703.13;10410538;28;20104;-50
2022/12/29 21:46:45;;;;;;;4.18;1.73;;;;;;;9.55;74.41;99702.81;10399160;28;20649;-48
2022/12/29 21:51:50;;;;;;;7.43;1.75;;;;;;;9.53;73.78;99726.00;10396317;28;20056;-49
2022/12/29 21:56:51;;;;;;;7.00;1.83;;;;;;;9.58;73.71;99738.88;10388083;28;20110;-49
2022/12/29 22:17:54;;;;;;;5.38;2.33;;;;;;;9.41;74.43;99761.56;10395860;28;20049;-49
2022/12/29 22:22:56;;;;;;;6.35;2.00;;;;;;;9.31;74.29;99749.06;10398606;28;20152;-49
2022/12/29 22:27:58;;;;;;;5.35;2.03;;;;;;;9.33;75.03;99773.66;10400097;28;20584;-49
2022/12/29 22:33:00;;;;;;;5.63;2.10;;;;;;;9.33;74.90;99776.31;10397738;28;20059;-50
2022/12/29 22:38:02;;;;;;;6.90;2.22;;;;;;;9.34;74.72;99774.53;10395810;28;20164;-49
2022/12/29 22:43:03;;;;;;;7.68;2.42;;;;;;;9.29;75.03;99787.34;10394370;28;20056;-48
2022/12/29 22:48:13;;;;;;;6.95;2.45;;;;;;;9.25;75.43;99792.06;10397924;28;20067;-48
2022/12/29 22:53:14;;;;;;;9.32;2.90;;;;;;;9.12;75.61;99784.25;10394370;28;20134;-54
2022/12/29 22:58:16;;;;;;;7.15;1.65;;;;;;;8.99;75.99;99775.59;10392240;28;20124;-49
2022/12/29 23:03:17;;;;;;;6.65;1.83;;;;;;;8.99;77.05;99788.88;10385377;28;20045;-50
2022/12/29 23:08:19;;;;;;;5.57;1.85;;;;;;;8.91;77.46;99802.78;10392216;28;20064;-49
2022/12/29 23:13:20;;;;;;;5.65;1.48;;;;;;;8.91;77.29;99813.41;10399960;28;20045;-49
2022/12/29 23:18:22;;;;;;;7.80;1.90;;;;;;;8.87;76.01;99811.94;10394750;28;20042;-49
2022/12/29 23:28:51;;;;;;;5.38;1.75;;;;;;;8.90;74.72;99829.44;10393967;28;20057;-48
2022/12/29 23:34:02;;;;;;;3.78;1.77;;;;;;;8.89;74.19;99833.06;10392493;28;20138;-48
2022/12/29 23:39:05;;;;;;;6.18;1.92;;;;;;;8.88;74.09;99837.53;10393007;28;20053;-48
2022/12/29 23:44:06;;;;;;;7.18;2.13;;;;;;;8.87;74.16;99843.78;10398780;28;20163;-53
2022/12/29 23:49:08;;;;;;;6.53;2.50;;;;;;;8.81;74.34;99839.84;10398368;28;20143;-49
2022/12/29 23:54:09;;;;;;;13.57;2.95;;;;;;;8.77;75.12;99856.97;10391782;28;20057;-49
2022/12/29 23:59:11;;;;;;;4.63;2.00;;;;;;;8.73;75.33;99863.47;10399719;28;20049;-48
